createdAt,value
2023-03-29T00:00:35.353Z,30.43
2023-03-29T00:01:36.500Z,30.07
2023-03-29T00:02:35.398Z,29.26
2023-03-29T00:03:35.393Z,29.52
2023-03-29T00:04:35.389Z,28.96
2023-03-29T00:05:35.349Z,30.20
2023-03-29T00:06:35.284Z,29.75
2023-03-29T00:07:35.313Z,29.09
2023-03-29T00:08:35.284Z,28.22
2023-03-29T00:09:35.250Z,28.11
2023-03-29T00:10:35.246Z,29.42
2023-03-29T00:11:35.239Z,28.66
2023-03-29T00:12:35.218Z,28.22
2023-03-29T00:13:35.214Z,28.16
2023-03-29T00:14:35.207Z,27.93
2023-03-29T00:15:35.195Z,26.46
2023-03-29T00:16:35.208Z,27.60
2023-03-29T00:17:35.212Z,28.09
2023-03-29T00:18:35.179Z,28.14
2023-03-29T00:19:35.167Z,26.03
2023-03-29T00:20:35.179Z,26.66
2023-03-29T00:21:35.160Z,26.02
2023-03-29T00:22:35.154Z,27.31
2023-03-29T00:23:35.153Z,26.08
2023-03-29T00:24:35.144Z,28.28
2023-03-29T00:25:35.151Z,25.56
2023-03-29T00:26:35.127Z,25.44
2023-03-29T00:27:35.120Z,25.27
2023-03-29T00:28:35.151Z,25.17
2023-03-29T00:29:35.102Z,25.23
2023-03-29T00:30:35.107Z,27.34
2023-03-29T00:31:35.146Z,27.29
2023-03-29T00:32:35.149Z,25.79
2023-03-29T00:33:35.090Z,27.41
2023-03-29T00:34:35.073Z,25.68
2023-03-29T00:35:35.197Z,26.50
2023-03-29T00:36:35.059Z,27.95
2023-03-29T00:37:35.050Z,26.55
2023-03-29T00:38:35.042Z,29.05
2023-03-29T00:39:35.036Z,27.06
2023-03-29T00:40:35.032Z,27.03
2023-03-29T00:41:35.020Z,27.28
2023-03-29T00:42:35.019Z,26.49
2023-03-29T00:43:35.010Z,27.48
2023-03-29T00:44:35.008Z,26.78
2023-03-29T00:45:34.999Z,25.81
2023-03-29T00:46:35.210Z,25.48
2023-03-29T00:47:35.037Z,25.01
2023-03-29T00:48:34.972Z,27.13
2023-03-29T00:49:34.960Z,28.12
2023-03-29T00:50:34.954Z,26.92
2023-03-29T00:51:34.949Z,26.11
2023-03-29T00:52:34.947Z,25.35
2023-03-29T00:53:34.936Z,27.73
2023-03-29T00:54:34.925Z,28.35
2023-03-29T00:55:34.911Z,27.01
2023-03-29T00:56:34.918Z,25.00
2023-03-29T00:57:34.907Z,26.68
2023-03-29T00:58:34.911Z,26.72
2023-03-29T00:59:34.910Z,25.13
2023-03-29T01:00:34.892Z,25.21
2023-03-29T01:01:34.928Z,25.42
2023-03-29T01:02:35.116Z,25.32
2023-03-29T01:03:34.957Z,27.02
2023-03-29T01:04:34.889Z,26.41
2023-03-29T01:05:34.882Z,26.51
2023-03-29T01:06:34.890Z,25.54
2023-03-29T01:07:34.876Z,28.33
2023-03-29T01:08:34.881Z,26.79
2023-03-29T01:09:34.884Z,25.94
2023-03-29T01:10:34.860Z,25.01
2023-03-29T01:11:34.866Z,25.04
2023-03-29T01:12:34.872Z,26.49
2023-03-29T01:13:34.864Z,26.66
2023-03-29T01:14:34.866Z,29.35
2023-03-29T01:15:34.875Z,30.52
2023-03-29T01:16:34.944Z,26.70
2023-03-29T01:17:34.927Z,27.34
2023-03-29T01:18:34.855Z,27.35
2023-03-29T01:19:34.850Z,26.24
2023-03-29T01:20:34.854Z,27.34
2023-03-29T01:21:34.852Z,25.90
2023-03-29T01:22:34.857Z,27.27
2023-03-29T01:23:34.847Z,25.54
2023-03-29T01:24:34.841Z,27.62
2023-03-29T01:25:34.839Z,27.72
2023-03-29T01:26:34.836Z,25.83
2023-03-29T01:27:34.835Z,26.84
2023-03-29T01:28:34.825Z,27.23
2023-03-29T01:29:34.820Z,28.09
2023-03-29T01:30:34.820Z,27.62
2023-03-29T01:31:34.836Z,27.66
2023-03-29T01:32:34.926Z,25.35
2023-03-29T01:33:34.808Z,27.28
2023-03-29T01:34:34.813Z,27.63
2023-03-29T01:35:34.834Z,27.28
2023-03-29T01:36:34.800Z,26.11
2023-03-29T01:37:34.786Z,26.98
2023-03-29T01:38:34.796Z,27.83
2023-03-29T01:39:34.792Z,27.18
2023-03-29T01:40:34.801Z,27.41
2023-03-29T01:41:34.797Z,26.34
2023-03-29T01:42:34.828Z,27.02
2023-03-29T01:43:34.799Z,26.54
2023-03-29T01:44:34.789Z,27.42
2023-03-29T01:45:34.775Z,25.98
2023-03-29T01:46:34.842Z,26.96
2023-03-29T01:47:34.788Z,28.80
2023-03-29T01:48:34.746Z,27.67
2023-03-29T01:49:34.733Z,26.07
2023-03-29T01:50:34.738Z,27.75
2023-03-29T01:51:34.717Z,25.91
2023-03-29T01:52:34.728Z,27.91
2023-03-29T01:53:34.718Z,26.18
2023-03-29T01:54:34.707Z,28.39
2023-03-29T01:55:34.699Z,29.18
2023-03-29T01:56:34.701Z,28.39
2023-03-29T01:57:34.699Z,29.31
2023-03-29T01:58:34.717Z,25.55
2023-03-29T01:59:34.700Z,27.08
2023-03-29T02:00:34.703Z,27.82
2023-03-29T02:01:34.749Z,27.37
2023-03-29T02:02:34.772Z,29.70
2023-03-29T02:03:34.784Z,27.75
2023-03-29T02:04:34.749Z,28.94
2023-03-29T02:05:34.690Z,26.64
2023-03-29T02:06:34.702Z,27.38
2023-03-29T02:07:34.688Z,25.63
2023-03-29T02:08:34.680Z,26.13
2023-03-29T02:09:34.677Z,26.74
2023-03-29T02:10:34.665Z,25.60
2023-03-29T02:11:34.668Z,27.78
2023-03-29T02:12:34.667Z,27.02
2023-03-29T02:13:34.659Z,25.35
2023-03-29T02:14:34.668Z,26.51
2023-03-29T02:15:34.705Z,28.60
2023-03-29T02:16:34.665Z,28.25
2023-03-29T02:17:34.708Z,26.39
2023-03-29T02:18:34.656Z,27.90
2023-03-29T02:19:34.687Z,25.48
2023-03-29T02:20:34.649Z,26.56
2023-03-29T02:21:34.641Z,27.19
2023-03-29T02:22:34.644Z,27.13
2023-03-29T02:23:34.634Z,29.14
2023-03-29T02:24:34.624Z,28.33
2023-03-29T02:25:34.611Z,27.32
2023-03-29T02:26:34.604Z,27.89
2023-03-29T02:27:34.609Z,26.68
2023-03-29T02:28:34.602Z,27.02
2023-03-29T02:29:34.596Z,28.20
2023-03-29T02:30:34.603Z,26.43
2023-03-29T02:31:34.627Z,26.94
2023-03-29T02:32:34.622Z,28.36
2023-03-29T02:33:34.571Z,27.89
2023-03-29T02:34:34.556Z,29.01
2023-03-29T02:35:34.671Z,27.01
2023-03-29T02:36:34.545Z,26.69
2023-03-29T02:37:34.544Z,26.53
2023-03-29T02:38:34.535Z,26.28
2023-03-29T02:39:34.522Z,26.66
2023-03-29T02:40:34.527Z,26.61
2023-03-29T02:41:34.524Z,26.88
2023-03-29T02:42:34.524Z,26.11
2023-03-29T02:43:34.513Z,27.77
2023-03-29T02:44:34.506Z,26.31
2023-03-29T02:45:34.501Z,26.53
2023-03-29T02:46:34.542Z,26.99
2023-03-29T02:47:34.596Z,28.86
2023-03-29T02:48:34.502Z,26.22
2023-03-29T02:49:34.493Z,26.39
2023-03-29T02:50:34.487Z,26.27
2023-03-29T02:51:34.474Z,27.04
2023-03-29T02:52:34.470Z,26.63
2023-03-29T02:53:34.460Z,27.35
2023-03-29T02:54:34.444Z,26.51
2023-03-29T02:55:34.480Z,27.62
2023-03-29T02:56:34.425Z,25.89
2023-03-29T02:57:34.424Z,25.98
2023-03-29T02:58:34.415Z,26.55
2023-03-29T02:59:34.409Z,27.33
2023-03-29T03:00:34.399Z,28.66
2023-03-29T03:01:34.414Z,28.43
2023-03-29T03:02:34.421Z,25.99
2023-03-29T03:03:34.452Z,27.65
2023-03-29T03:04:34.368Z,28.26
2023-03-29T03:05:34.361Z,25.59
2023-03-29T03:06:34.359Z,25.93
2023-03-29T03:07:34.352Z,27.59
2023-03-29T03:08:34.348Z,25.16
2023-03-29T03:09:34.334Z,27.62
2023-03-29T03:10:34.322Z,26.29
2023-03-29T03:11:34.320Z,25.64
2023-03-29T03:12:34.320Z,27.31
2023-03-29T03:13:34.327Z,26.73
2023-03-29T03:14:34.310Z,27.83
2023-03-29T03:15:34.293Z,28.45
2023-03-29T03:16:34.357Z,25.44
2023-03-29T03:17:34.326Z,26.32
2023-03-29T03:18:34.365Z,26.33
2023-03-29T03:19:34.291Z,26.11
2023-03-29T03:20:34.282Z,27.69
2023-03-29T03:21:34.263Z,28.95
2023-03-29T03:22:34.258Z,28.42
2023-03-29T03:23:34.250Z,25.99
2023-03-29T03:24:34.286Z,27.07
2023-03-29T03:25:34.243Z,27.44
2023-03-29T03:26:34.243Z,29.12
2023-03-29T03:27:34.318Z,28.77
2023-03-29T03:28:34.254Z,28.33
2023-03-29T03:29:34.217Z,26.91
2023-03-29T03:30:34.227Z,26.84
2023-03-29T03:31:34.241Z,26.72
2023-03-29T03:32:34.291Z,25.61
2023-03-29T03:33:34.561Z,27.30
2023-03-29T03:34:34.205Z,26.23
2023-03-29T03:35:34.221Z,26.25
2023-03-29T03:36:34.180Z,27.02
2023-03-29T03:37:34.186Z,26.45
2023-03-29T03:38:34.193Z,25.00
2023-03-29T03:39:34.273Z,27.00
2023-03-29T03:40:34.194Z,28.01
2023-03-29T03:41:34.166Z,25.52
2023-03-29T03:42:34.157Z,27.55
2023-03-29T03:43:34.202Z,28.22
2023-03-29T03:44:34.147Z,27.09
2023-03-29T03:45:34.197Z,27.41
2023-03-29T03:46:34.144Z,26.19
2023-03-29T03:47:34.144Z,26.80
2023-03-29T03:48:34.139Z,27.09
2023-03-29T03:49:34.142Z,29.29
2023-03-29T03:50:34.120Z,28.39
2023-03-29T03:51:34.119Z,26.89
2023-03-29T03:52:34.114Z,27.63
2023-03-29T03:53:34.098Z,25.87
2023-03-29T03:54:34.099Z,25.62
2023-03-29T03:55:34.089Z,26.10
2023-03-29T03:56:34.079Z,25.44
2023-03-29T03:57:34.078Z,26.62
2023-03-29T03:58:34.066Z,26.86
2023-03-29T03:59:34.109Z,27.95
2023-03-29T04:00:34.078Z,27.87
2023-03-29T04:01:34.093Z,29.14
2023-03-29T04:02:34.116Z,30.08
2023-03-29T04:03:34.649Z,29.62
2023-03-29T04:04:34.227Z,28.02
2023-03-29T04:05:34.059Z,25.47
2023-03-29T04:06:34.076Z,28.45
2023-03-29T04:07:34.071Z,28.63
2023-03-29T04:08:34.066Z,26.82
2023-03-29T04:09:34.059Z,29.32
2023-03-29T04:10:34.049Z,28.05
2023-03-29T04:11:34.046Z,28.44
2023-03-29T04:12:34.029Z,26.66
2023-03-29T04:13:34.024Z,25.73
2023-03-29T04:14:34.018Z,28.16
2023-03-29T04:15:34.110Z,29.32
2023-03-29T04:16:34.012Z,28.40
2023-03-29T04:17:34.230Z,30.04
2023-03-29T04:18:34.067Z,27.80
2023-03-29T04:19:34.005Z,27.29
2023-03-29T04:20:33.997Z,27.33
2023-03-29T04:21:34.004Z,27.27
2023-03-29T04:22:33.995Z,27.49
2023-03-29T04:23:34.002Z,27.12
2023-03-29T04:24:33.988Z,29.52
2023-03-29T04:25:33.982Z,28.53
2023-03-29T04:26:33.969Z,27.97
2023-03-29T04:27:33.968Z,27.16
2023-03-29T04:28:33.978Z,26.58
2023-03-29T04:29:33.969Z,26.53
2023-03-29T04:30:33.967Z,27.07
2023-03-29T04:31:33.991Z,30.57
2023-03-29T04:32:33.978Z,28.56
2023-03-29T04:33:33.960Z,28.49
2023-03-29T04:34:33.955Z,28.19
2023-03-29T04:35:34.014Z,27.52
2023-03-29T04:36:33.944Z,27.30
2023-03-29T04:37:33.944Z,26.20
2023-03-29T04:38:33.941Z,26.56
2023-03-29T04:39:34.065Z,27.59
2023-03-29T04:40:33.941Z,29.04
2023-03-29T04:41:33.934Z,27.26
2023-03-29T04:42:33.920Z,27.53
2023-03-29T04:43:33.908Z,25.37
2023-03-29T04:44:34.008Z,25.00
2023-03-29T04:45:33.914Z,28.72
2023-03-29T04:46:34.001Z,28.35
2023-03-29T04:47:33.959Z,27.84
2023-03-29T04:48:33.906Z,30.54
2023-03-29T04:49:33.920Z,27.08
2023-03-29T04:50:33.906Z,29.37
2023-03-29T04:51:33.897Z,28.79
2023-03-29T04:52:33.908Z,27.96
2023-03-29T04:53:33.909Z,27.25
2023-03-29T04:54:33.905Z,26.77
2023-03-29T04:55:33.893Z,28.95
2023-03-29T04:56:33.891Z,27.00
2023-03-29T04:57:33.884Z,27.30
2023-03-29T04:58:33.883Z,26.39
2023-03-29T04:59:33.897Z,28.43
2023-03-29T05:00:33.883Z,26.84
2023-03-29T05:01:33.938Z,28.48
2023-03-29T05:02:33.908Z,27.86
2023-03-29T05:03:33.857Z,26.51
2023-03-29T05:04:33.906Z,27.23
2023-03-29T05:05:33.866Z,26.41
2023-03-29T05:06:33.849Z,29.25
2023-03-29T05:07:33.863Z,26.89
2023-03-29T05:08:33.853Z,25.47
2023-03-29T05:09:35.582Z,25.99
2023-03-29T05:10:33.850Z,28.17
2023-03-29T05:11:33.843Z,27.82
2023-03-29T05:12:33.848Z,25.58
2023-03-29T05:13:33.823Z,27.76
2023-03-29T05:14:33.840Z,28.41
2023-03-29T05:15:33.828Z,26.16
2023-03-29T05:16:33.862Z,27.86
2023-03-29T05:17:33.900Z,26.96
2023-03-29T05:18:33.839Z,27.35
2023-03-29T05:19:33.825Z,26.73
2023-03-29T05:20:33.843Z,26.70
2023-03-29T05:21:33.845Z,27.88
2023-03-29T05:22:33.832Z,28.37
2023-03-29T05:23:33.824Z,31.10
2023-03-29T05:24:33.827Z,31.41
2023-03-29T05:25:33.835Z,32.55
2023-03-29T05:26:33.807Z,36.44
2023-03-29T05:27:33.817Z,34.87
2023-03-29T05:28:33.870Z,35.80
2023-03-29T05:29:33.813Z,34.21
2023-03-29T05:30:33.839Z,35.93
2023-03-29T05:31:33.859Z,38.47
2023-03-29T05:32:33.824Z,39.69
2023-03-29T05:33:33.857Z,42.01
2023-03-29T05:34:33.836Z,44.51
2023-03-29T05:35:33.904Z,43.59
2023-03-29T05:36:33.820Z,46.27
2023-03-29T05:37:33.805Z,44.90
2023-03-29T05:38:33.818Z,48.47
2023-03-29T05:39:35.735Z,48.59
2023-03-29T05:40:33.872Z,51.07
2023-03-29T05:41:33.754Z,50.76
2023-03-29T05:42:33.722Z,49.39
2023-03-29T05:43:33.718Z,52.55
2023-03-29T05:44:33.682Z,48.43
2023-03-29T05:45:34.699Z,48.86
2023-03-29T05:46:34.591Z,49.63
2023-03-29T05:47:33.647Z,50.65
2023-03-29T05:48:33.596Z,52.17
2023-03-29T05:49:33.577Z,51.99
2023-03-29T05:50:33.553Z,55.51
2023-03-29T05:51:33.531Z,56.47
2023-03-29T05:52:33.509Z,54.12
2023-03-29T05:53:33.485Z,55.16
2023-03-29T05:54:33.468Z,52.66
2023-03-29T05:55:33.453Z,54.86
2023-03-29T05:56:33.428Z,54.03
2023-03-29T05:57:33.418Z,51.86
2023-03-29T05:58:33.394Z,54.73
2023-03-29T05:59:33.381Z,54.54
2023-03-29T06:00:33.355Z,54.85
2023-03-29T06:01:33.352Z,53.74
2023-03-29T06:02:33.414Z,55.67
2023-03-29T06:03:33.389Z,55.22
2023-03-29T06:04:33.362Z,55.76
2023-03-29T06:05:33.265Z,57.28
2023-03-29T06:06:33.256Z,55.71
2023-03-29T06:07:33.222Z,57.69
2023-03-29T06:08:34.094Z,57.86
2023-03-29T06:09:33.176Z,58.04
2023-03-29T06:10:33.205Z,58.72
2023-03-29T06:11:33.143Z,58.15
2023-03-29T06:12:33.111Z,58.42
2023-03-29T06:13:33.091Z,58.48
2023-03-29T06:14:33.070Z,57.75
2023-03-29T06:15:33.063Z,60.34
2023-03-29T06:16:33.055Z,57.94
2023-03-29T06:17:33.039Z,58.02
2023-03-29T06:18:32.986Z,57.75
2023-03-29T06:19:32.961Z,59.04
2023-03-29T06:20:32.975Z,58.32
2023-03-29T06:21:32.954Z,57.83
2023-03-29T06:22:32.953Z,56.31
2023-03-29T06:23:32.920Z,57.82
2023-03-29T06:24:32.900Z,54.08
2023-03-29T06:25:32.881Z,56.39
2023-03-29T06:26:32.880Z,55.99
2023-03-29T06:27:32.854Z,59.92
2023-03-29T06:28:32.844Z,73.61
2023-03-29T06:29:32.815Z,85.02
2023-03-29T06:30:32.819Z,95.51
2023-03-29T06:31:32.847Z,107.78
2023-03-29T06:32:32.808Z,115.58
2023-03-29T06:33:32.776Z,127.16
2023-03-29T06:34:32.736Z,135.14
2023-03-29T06:35:33.637Z,143.75
2023-03-29T06:36:32.692Z,156.45
2023-03-29T06:37:34.642Z,157.03
2023-03-29T06:38:33.652Z,159.41
2023-03-29T06:39:33.617Z,157.53
2023-03-29T06:40:35.121Z,161.25
2023-03-29T06:41:32.716Z,170.58
2023-03-29T06:42:32.749Z,184.51
2023-03-29T06:43:33.305Z,205.16
2023-03-29T06:44:32.805Z,214.46
2023-03-29T06:45:32.855Z,218.87
2023-03-29T06:46:32.917Z,226.80
2023-03-29T06:47:32.954Z,231.50
2023-03-29T06:48:32.904Z,233.70
2023-03-29T06:49:32.930Z,240.25
2023-03-29T06:50:32.957Z,246.81
2023-03-29T06:51:32.928Z,247.13
2023-03-29T06:52:32.890Z,248.52
2023-03-29T06:53:35.627Z,252.20
2023-03-29T06:54:32.806Z,247.86
2023-03-29T06:55:32.763Z,251.32
2023-03-29T06:56:32.858Z,257.56
2023-03-29T06:57:32.693Z,267.28
2023-03-29T06:58:32.662Z,285.07
2023-03-29T06:59:32.628Z,264.22
2023-03-29T07:00:32.705Z,249.03
2023-03-29T07:01:32.599Z,249.52
2023-03-29T07:02:32.528Z,250.00
2023-03-29T07:03:32.481Z,250.00
2023-03-29T07:04:32.522Z,250.00
2023-03-29T07:05:33.125Z,248.35
2023-03-29T07:06:32.582Z,248.73
2023-03-29T07:07:33.543Z,249.96
2023-03-29T07:08:32.560Z,252.68
2023-03-29T07:09:32.539Z,255.84
2023-03-29T07:10:32.884Z,264.65
2023-03-29T07:11:32.526Z,247.88
2023-03-29T07:12:32.544Z,249.96
2023-03-29T07:13:32.546Z,250.00
2023-03-29T07:14:32.541Z,249.63
2023-03-29T07:15:32.557Z,250.00
2023-03-29T07:16:32.694Z,249.69
2023-03-29T07:17:32.617Z,250.00
2023-03-29T07:18:32.563Z,248.96
2023-03-29T07:19:32.544Z,249.72
2023-03-29T07:20:32.549Z,249.43
2023-03-29T07:21:34.440Z,245.74
2023-03-29T07:22:32.555Z,246.44
2023-03-29T07:23:32.489Z,246.71
2023-03-29T07:24:32.600Z,247.52
2023-03-29T07:25:32.396Z,249.27
2023-03-29T07:26:32.341Z,251.60
2023-03-29T07:27:32.322Z,256.54
2023-03-29T07:28:33.292Z,247.01
2023-03-29T07:29:32.263Z,249.04
2023-03-29T07:30:32.753Z,251.92
2023-03-29T07:31:32.134Z,258.40
2023-03-29T07:32:32.170Z,266.01
2023-03-29T07:33:32.132Z,253.30
2023-03-29T07:34:32.008Z,250.87
2023-03-29T07:35:32.012Z,250.00
2023-03-29T07:36:31.920Z,250.55
2023-03-29T07:37:33.628Z,250.00
2023-03-29T07:38:31.827Z,248.77
2023-03-29T07:39:31.781Z,247.63
2023-03-29T07:40:31.762Z,247.62
2023-03-29T07:41:31.710Z,249.25
2023-03-29T07:42:31.665Z,250.00
2023-03-29T07:43:31.643Z,250.10
2023-03-29T07:44:32.555Z,250.78
2023-03-29T07:45:31.546Z,253.43
2023-03-29T07:46:31.503Z,250.46
2023-03-29T07:47:31.553Z,251.71
2023-03-29T07:48:31.412Z,255.19
2023-03-29T07:49:31.363Z,259.95
2023-03-29T07:50:31.331Z,266.26
2023-03-29T07:51:31.305Z,255.92
2023-03-29T07:52:31.257Z,250.29
2023-03-29T07:53:31.211Z,247.67
2023-03-29T07:54:31.194Z,247.83
2023-03-29T07:55:31.139Z,248.30
2023-03-29T07:56:31.097Z,249.63
2023-03-29T07:57:31.108Z,247.95
2023-03-29T07:58:31.632Z,248.85
2023-03-29T07:59:30.975Z,251.04
2023-03-29T08:00:30.953Z,254.20
2023-03-29T08:01:30.957Z,257.45
2023-03-29T08:02:30.922Z,250.47
2023-03-29T08:03:30.865Z,248.37
2023-03-29T08:04:31.749Z,247.51
2023-03-29T08:05:40.709Z,249.50
2023-03-29T08:06:31.670Z,249.52
2023-03-29T08:07:30.641Z,249.74
2023-03-29T08:08:30.599Z,249.93
2023-03-29T08:09:33.145Z,251.86
2023-03-29T08:10:31.141Z,249.73
2023-03-29T08:11:30.461Z,250.53
2023-03-29T08:12:31.147Z,251.60
2023-03-29T08:13:30.383Z,252.26
2023-03-29T08:14:30.349Z,249.78
2023-03-29T08:15:30.338Z,249.93
2023-03-29T08:16:30.321Z,228.44
2023-03-29T08:17:30.224Z,208.39
2023-03-29T08:18:32.760Z,215.81
2023-03-29T08:19:30.148Z,212.83
2023-03-29T08:20:30.107Z,213.28
2023-03-29T08:21:30.079Z,175.93
2023-03-29T08:22:31.644Z,154.80
2023-03-29T08:23:29.996Z,161.50
2023-03-29T08:24:29.966Z,132.58
2023-03-29T08:25:29.937Z,98.92
2023-03-29T08:26:40.900Z,81.78
2023-03-29T08:27:29.899Z,81.93
2023-03-29T08:28:32.190Z,82.00
2023-03-29T08:29:29.883Z,89.08
2023-03-29T08:30:30.648Z,92.76
2023-03-29T08:31:29.924Z,99.64
2023-03-29T08:32:29.937Z,99.14
2023-03-29T08:33:29.890Z,96.79
2023-03-29T08:34:29.870Z,93.70
2023-03-29T08:35:29.874Z,94.46
2023-03-29T08:36:31.153Z,94.54
2023-03-29T08:37:29.792Z,94.55
2023-03-29T08:38:29.763Z,94.96
2023-03-29T08:39:29.756Z,95.87
2023-03-29T08:40:29.702Z,96.92
2023-03-29T08:41:29.692Z,98.87
2023-03-29T08:42:29.628Z,98.88
2023-03-29T08:43:29.606Z,100.18
2023-03-29T08:44:30.159Z,101.38
2023-03-29T08:45:29.527Z,101.55
2023-03-29T08:47:29.502Z,103.30
2023-03-29T08:48:30.084Z,104.26
2023-03-29T08:49:29.461Z,106.88
2023-03-29T08:50:29.452Z,105.92
2023-03-29T08:51:29.463Z,104.75
2023-03-29T08:52:29.451Z,106.78
2023-03-29T08:53:29.447Z,111.12
2023-03-29T08:54:29.415Z,110.64
2023-03-29T08:55:29.415Z,113.50
2023-03-29T08:56:30.768Z,113.76
2023-03-29T08:57:29.367Z,116.18
2023-03-29T08:58:29.326Z,112.76
2023-03-29T08:59:29.282Z,115.80
2023-03-29T09:00:29.233Z,117.93
2023-03-29T09:01:29.208Z,117.30
2023-03-29T09:02:29.329Z,119.94
2023-03-29T09:03:29.728Z,120.21
2023-03-29T09:04:30.116Z,120.42
2023-03-29T09:05:29.061Z,120.90
2023-03-29T09:06:29.015Z,122.80
2023-03-29T09:07:29.668Z,124.88
2023-03-29T09:08:28.937Z,127.55
2023-03-29T09:09:28.903Z,126.61
2023-03-29T09:10:28.887Z,129.44
2023-03-29T09:11:28.852Z,131.87
2023-03-29T09:12:28.840Z,127.52
2023-03-29T09:13:29.179Z,86.60
2023-03-29T09:14:28.826Z,87.50
2023-03-29T09:15:28.794Z,90.36
2023-03-29T09:16:28.828Z,97.29
2023-03-29T09:17:28.801Z,107.04
2023-03-29T09:18:28.771Z,118.05
2023-03-29T09:19:28.791Z,116.01
2023-03-29T09:20:28.821Z,108.46
2023-03-29T09:21:28.839Z,105.47
2023-03-29T09:22:28.855Z,103.50
2023-03-29T09:23:28.889Z,102.74
2023-03-29T09:24:28.910Z,100.47
2023-03-29T09:25:28.933Z,99.66
2023-03-29T09:26:28.941Z,100.61
2023-03-29T09:27:28.995Z,100.23
2023-03-29T09:28:28.982Z,100.45
2023-03-29T09:29:28.960Z,100.46
2023-03-29T09:30:28.921Z,99.47
2023-03-29T09:31:28.934Z,98.19
2023-03-29T09:32:28.888Z,97.49
2023-03-29T09:33:28.816Z,95.76
2023-03-29T09:34:28.770Z,95.55
2023-03-29T09:35:28.822Z,97.01
2023-03-29T09:36:28.711Z,94.40
2023-03-29T09:37:28.672Z,94.43
2023-03-29T09:38:28.670Z,94.20
2023-03-29T09:39:28.620Z,92.45
2023-03-29T09:40:28.579Z,93.74
2023-03-29T09:41:28.613Z,92.55
2023-03-29T09:42:28.617Z,92.84
2023-03-29T09:43:28.631Z,91.77
2023-03-29T09:44:31.150Z,90.54
2023-03-29T09:45:28.636Z,91.32
2023-03-29T09:46:28.598Z,91.07
2023-03-29T09:47:28.666Z,90.57
2023-03-29T09:48:28.515Z,90.14
2023-03-29T09:49:29.174Z,89.66
2023-03-29T09:50:32.031Z,89.89
2023-03-29T09:51:28.415Z,90.00
2023-03-29T09:52:28.370Z,90.02
2023-03-29T09:53:28.377Z,90.00
2023-03-29T09:54:28.299Z,89.02
2023-03-29T09:55:28.289Z,88.72
2023-03-29T09:56:28.238Z,88.10
2023-03-29T09:57:28.252Z,87.64
2023-03-29T09:58:28.164Z,86.93
2023-03-29T09:59:28.124Z,86.82
2023-03-29T10:00:28.153Z,85.09
2023-03-29T10:01:28.107Z,86.48
2023-03-29T10:02:28.023Z,86.16
2023-03-29T10:03:27.972Z,85.61
2023-03-29T10:04:27.959Z,85.88
2023-03-29T10:05:27.887Z,85.99
2023-03-29T10:06:27.848Z,86.14
2023-03-29T10:07:27.820Z,85.66
2023-03-29T10:08:27.782Z,84.38
2023-03-29T10:09:27.749Z,84.75
2023-03-29T10:10:27.710Z,83.64
2023-03-29T10:11:27.665Z,83.45
2023-03-29T10:12:27.640Z,83.34
2023-03-29T10:13:27.601Z,83.62
2023-03-29T10:14:27.569Z,82.94
2023-03-29T10:15:30.100Z,83.94
2023-03-29T10:16:27.557Z,84.00
2023-03-29T10:17:27.476Z,83.96
2023-03-29T10:18:27.425Z,83.77
2023-03-29T10:19:27.399Z,83.36
2023-03-29T10:20:27.356Z,82.64
2023-03-29T10:21:27.316Z,82.80
2023-03-29T10:22:27.340Z,82.38
2023-03-29T10:23:27.254Z,81.35
2023-03-29T10:24:27.228Z,82.16
2023-03-29T10:25:27.186Z,81.52
2023-03-29T10:26:27.173Z,81.19
2023-03-29T10:27:27.205Z,79.76
2023-03-29T10:28:27.309Z,81.07
2023-03-29T10:29:27.266Z,79.97
2023-03-29T10:30:27.291Z,80.03
2023-03-29T10:31:27.390Z,80.73
2023-03-29T10:32:27.382Z,80.68
2023-03-29T10:34:27.394Z,80.68
2023-03-29T10:35:27.423Z,78.96
2023-03-29T10:36:27.445Z,78.76
2023-03-29T10:37:27.471Z,79.08
2023-03-29T10:38:27.501Z,78.60
2023-03-29T10:39:27.566Z,79.29
2023-03-29T10:40:27.573Z,78.73
2023-03-29T10:41:27.611Z,78.66
2023-03-29T10:42:27.637Z,79.37
2023-03-29T10:43:27.653Z,78.46
2023-03-29T10:44:27.684Z,77.93
2023-03-29T10:45:27.688Z,78.87
2023-03-29T10:46:27.743Z,77.30
2023-03-29T10:47:27.736Z,78.94
2023-03-29T10:48:27.743Z,78.60
2023-03-29T10:49:27.778Z,77.65
2023-03-29T10:50:27.788Z,78.51
2023-03-29T10:51:27.874Z,78.99
2023-03-29T10:52:27.842Z,77.76
2023-03-29T10:53:27.866Z,76.97
2023-03-29T10:54:28.609Z,77.41
2023-03-29T10:55:27.928Z,78.40
2023-03-29T10:56:27.970Z,77.72
2023-03-29T10:57:28.006Z,78.20
2023-03-29T10:58:28.012Z,77.31
2023-03-29T10:59:28.041Z,77.30
2023-03-29T11:00:28.073Z,77.20
2023-03-29T11:01:28.127Z,77.16
2023-03-29T11:02:28.160Z,77.29
2023-03-29T11:03:28.284Z,76.83
2023-03-29T11:04:28.136Z,77.55
2023-03-29T11:05:28.165Z,78.00
2023-03-29T11:06:28.195Z,77.09
2023-03-29T11:07:28.197Z,76.84
2023-03-29T11:08:30.479Z,76.92
2023-03-29T11:09:28.174Z,78.04
2023-03-29T11:10:28.152Z,77.25
2023-03-29T11:11:28.113Z,76.81
2023-03-29T11:12:28.090Z,76.99
2023-03-29T11:13:28.065Z,77.06
2023-03-29T11:14:28.032Z,77.24
2023-03-29T11:15:28.113Z,77.29
2023-03-29T11:16:28.267Z,77.55
2023-03-29T11:17:27.963Z,75.18
2023-03-29T11:18:27.948Z,77.05
2023-03-29T11:19:27.893Z,76.57
2023-03-29T11:20:27.873Z,75.49
2023-03-29T11:21:27.854Z,75.67
2023-03-29T11:22:27.876Z,75.97
2023-03-29T11:23:27.884Z,74.91
2023-03-29T11:24:27.886Z,75.19
2023-03-29T11:25:29.606Z,74.83
2023-03-29T11:26:27.889Z,75.34
2023-03-29T11:27:27.905Z,75.23
2023-03-29T11:28:27.944Z,75.39
2023-03-29T11:29:27.933Z,74.10
2023-03-29T11:30:28.037Z,75.16
2023-03-29T11:31:28.035Z,75.05
2023-03-29T11:32:27.998Z,74.51
2023-03-29T11:33:27.990Z,75.38
2023-03-29T11:34:27.967Z,75.08
2023-03-29T11:35:27.961Z,74.72
2023-03-29T11:36:27.977Z,74.48
2023-03-29T11:37:27.964Z,75.47
2023-03-29T11:38:27.957Z,73.85
2023-03-29T11:39:27.936Z,73.89
2023-03-29T11:40:27.954Z,74.50
2023-03-29T11:41:27.948Z,74.05
2023-03-29T11:42:27.924Z,73.45
2023-03-29T11:43:27.910Z,73.83
2023-03-29T11:44:27.896Z,74.05
2023-03-29T11:45:28.658Z,73.66
2023-03-29T11:46:27.875Z,73.88
2023-03-29T11:47:27.877Z,74.79
2023-03-29T11:48:27.855Z,73.87
2023-03-29T11:49:27.843Z,73.75
2023-03-29T11:50:27.816Z,74.22
2023-03-29T11:51:27.808Z,73.97
2023-03-29T11:52:27.791Z,73.42
2023-03-29T11:53:27.784Z,73.24
2023-03-29T11:54:27.768Z,73.27
2023-03-29T11:55:28.216Z,72.04
2023-03-29T11:56:27.735Z,73.46
2023-03-29T11:57:27.742Z,72.67
2023-03-29T11:58:27.705Z,73.03
2023-03-29T11:59:27.705Z,73.06
2023-03-29T12:00:27.693Z,72.53
2023-03-29T12:01:27.683Z,72.53
2023-03-29T12:02:27.729Z,73.49
2023-03-29T12:03:27.754Z,72.51
2023-03-29T12:04:27.708Z,72.42
2023-03-29T12:05:27.649Z,72.64
2023-03-29T12:06:27.626Z,71.90
2023-03-29T12:07:27.666Z,72.13
2023-03-29T12:08:27.610Z,71.35
2023-03-29T12:09:28.208Z,72.47
2023-03-29T12:10:27.600Z,72.03
2023-03-29T12:11:27.572Z,72.63
2023-03-29T12:12:27.577Z,71.55
2023-03-29T12:13:27.565Z,71.83
2023-03-29T12:14:28.154Z,70.19
2023-03-29T12:15:27.574Z,71.51
2023-03-29T12:16:27.550Z,71.86
2023-03-29T12:17:27.541Z,71.38
2023-03-29T12:18:27.552Z,70.57
2023-03-29T12:19:27.508Z,70.05
2023-03-29T12:20:27.504Z,70.88
2023-03-29T12:21:27.516Z,70.14
2023-03-29T12:22:27.494Z,70.56
2023-03-29T12:23:27.481Z,70.33
2023-03-29T12:24:27.466Z,70.17
2023-03-29T12:25:27.463Z,70.16
2023-03-29T12:26:28.440Z,70.28
2023-03-29T12:27:27.426Z,70.46
2023-03-29T12:28:27.745Z,70.30
2023-03-29T12:29:27.389Z,70.76
2023-03-29T12:30:27.342Z,71.06
2023-03-29T12:31:27.379Z,71.11
2023-03-29T12:32:27.351Z,70.08
2023-03-29T12:33:27.298Z,69.13
2023-03-29T12:34:30.217Z,70.07
2023-03-29T12:35:27.259Z,70.86
2023-03-29T12:36:27.252Z,69.46
2023-03-29T12:37:27.196Z,69.93
2023-03-29T12:38:28.187Z,69.23
2023-03-29T12:39:27.165Z,69.37
2023-03-29T12:40:27.135Z,69.39
2023-03-29T12:41:27.117Z,69.73
2023-03-29T12:42:27.100Z,69.34
2023-03-29T12:43:27.081Z,69.26
2023-03-29T12:44:27.051Z,69.46
2023-03-29T12:45:27.031Z,68.50
2023-03-29T12:46:27.825Z,68.43
2023-03-29T12:47:27.049Z,70.26
2023-03-29T12:48:26.964Z,70.74
2023-03-29T12:49:26.938Z,70.21